• Join FlightAware (Why Join?)
  • Login
  • US Flag 
10:17PM EDT


 

Airport Tracker/Info


-or-


 

Live Flight TrackerFlight Track Log ✈ AAL1459 ✈ 14-May-2013 ✈ KORD - KRNO

Flight Track Log - Related Links

Times and Time Zones

All times are in EDT time to prevent confusion due to time zone crossing. See the AAL1459 flight status page for this flight to view local times or setup timezone preferences in your user account.

Time Position Orientation Groundspeed Altitude Reporting Facility
EDT Latitude Longitude Course Direction KTS MPH feet Rate Location/Type
07:37PM 41.9520 -87.9010 223° Southwest 179 206 1,200  Level FlightAware
07:37PM 41.9350 -87.9250 226° Southwest 178 205 2,700 2,040 Climbing FlightAware
07:38PM 41.9190 -87.9460 224° Southwest 212 244 3,100 1,500 Climbing FlightAware
07:38PM 41.8950 -87.9770 224° Southwest 244 281 4,100 2,400 Climbing FlightAware
07:39PM 41.8700 -88.0090 224° Southwest 253 291 5,500 2,940 Climbing FlightAware
07:39PM 41.8510 -88.0420 232° Southwest 260 299 6,800 3,120 Climbing FlightAware
07:39PM 41.8480 -88.0630 259° West 256 295 7,600 3,420 Climbing FlightAware
07:40PM 41.8460 -88.1000 266° West 246 283 9,100 2,880 Climbing FlightAware
07:40PM 41.8420 -88.1700 266° West 257 296 11,000 1,920 Climbing FlightAware
07:41PM 41.8370 -88.2390 264° West 297 342 11,900 1,620 Climbing FlightAware
07:42PM 41.8320 -88.3150 265° West 320 368 13,200 2,100 Climbing FlightAware
07:42PM 41.8260 -88.4070 265° West 338 389 14,900 2,220 Climbing FlightAware
07:43PM 41.8190 -88.5050 265° West 352 405 16,600 2,160 Climbing FlightAware
07:44PM 41.8110 -88.5900 263° West 363 418 18,000 2,400 Climbing FlightAware
07:45PM 41.8020 -88.6840 263° West 364 419 19,800 2,100 Climbing FlightAware
07:45PM 41.7940 -88.7830 264° West 381 438 21,000 1,680 Climbing FlightAware
07:46PM 41.7870 -88.8790 264° West 394 453 22,200 2,040 Climbing FlightAware
07:47PM 41.7780 -88.9920 264° West 394 453 23,900 2,040 Climbing FlightAware
07:47PM 41.7770 -89.0860 269° West 394 453 25,100 1,560 Climbing FlightAware
07:48PM 41.7850 -89.1870 276° West 405 466 26,000 1,320 Climbing FlightAware
07:49PM 41.7930 -89.2970 276° West 411 473 27,000 1,320 Climbing FlightAware
07:49PM 41.8020 -89.4000 277° West 417 480 27,900 1,320 Climbing FlightAware
07:50PM 41.8110 -89.5180 276° West 421 484 28,900 1,320 Climbing FlightAware
07:51PM 41.8190 -89.6230 276° West 421 484 29,800 1,500 Climbing FlightAware
07:52PM 41.8270 -89.7250 276° West 419 482 30,900 1,440 Climbing FlightAware
07:52PM 41.8350 -89.8380 275° West 417 480 31,900 1,260 Climbing FlightAware
07:53PM 41.8420 -89.9390 275° West 417 480 32,700 1,200 Climbing FlightAware
07:54PM 41.8500 -90.0450 276° West 415 478 33,500 1,200 Climbing FlightAware
07:54PM 41.8570 -90.1590 275° West 413 475 34,400 1,200 Climbing FlightAware
07:55PM 41.8650 -90.2600 276° West 409 471 35,200 1,020 Climbing FlightAware
07:56PM 41.8720 -90.3700 275° West 406 467 35,900 540 Climbing FlightAware
07:56PM 41.8790 -90.4730 275° West 406 467 36,000 60 Climbing FlightAware
07:57PM 41.8860 -90.5730 275° West 405 466 36,000  Level FlightAware
07:58PM 41.8920 -90.6690 275° West 406 467 36,000  Level FlightAware
07:59PM 41.9000 -90.7910 275° West 407 468 36,000  Level FlightAware
07:59PM 41.9060 -90.8870 275° West 408 470 36,000  Level FlightAware
08:00PM 41.9130 -90.9970 275° West 409 471 36,000  Level FlightAware
08:01PM 41.9190 -91.1020 274° West 410 472 36,000  Level FlightAware
08:01PM 41.9260 -91.2150 275° West 409 471 36,000  Level FlightAware
08:02PM 41.9320 -91.3180 275° West 408 470 36,000  Level FlightAware
08:03PM 41.9390 -91.4340 275° West 407 468 36,000  Level FlightAware
08:03PM 41.9450 -91.5330 275° West 406 467 36,000  Level FlightAware
08:04PM 41.9500 -91.6350 274° West 406 467 36,000  Level FlightAware
08:05PM 41.9570 -91.7450 275° West 407 468 36,000  Level FlightAware
08:06PM 41.9620 -91.8450 274° West 408 470 36,000  Level FlightAware
08:06PM 41.9670 -91.9470 274° West 408 470 36,000  Level FlightAware
08:07PM 41.9730 -92.0610 274° West 409 471 36,000  Level FlightAware
08:08PM 41.9790 -92.1640 275° West 408 470 36,000  Level FlightAware
08:08PM 41.9850 -92.2740 274° West 408 470 36,000  Level FlightAware
08:09PM 41.9900 -92.3730 274° West 407 468 36,000  Level FlightAware
08:10PM 41.9950 -92.4760 274° West 406 467 36,000  Level FlightAware
08:10PM 42.0000 -92.5910 273° West 405 466 36,000  Level FlightAware
08:11PM 42.0050 -92.6910 274° West 405 466 36,000  Level FlightAware
08:12PM 42.0100 -92.8030 273° West 405 466 36,000  Level FlightAware
08:13PM 42.0150 -92.9020 274° West 407 468 36,000  Level FlightAware
08:13PM 42.0190 -93.0030 273° West 408 470 36,000  Level FlightAware
08:14PM 42.0240 -93.1210 273° West 408 470 36,000  Level FlightAware
08:15PM 42.0290 -93.2200 274° West 408 470 36,000  Level FlightAware
08:15PM 42.0330 -93.3200 273° West 410 472 36,000  Level FlightAware
08:16PM 42.0370 -93.4330 273° West 411 473 36,000  Level FlightAware
08:17PM 42.0410 -93.5350 273° West 412 474 36,000  Level FlightAware
08:17PM 42.0460 -93.6550 273° West 415 478 36,000  Level FlightAware
08:18PM 42.0500 -93.7580 273° West 416 479 36,000  Level FlightAware
08:19PM 42.0540 -93.8590 273° West 412 474 36,000  Level FlightAware
08:20PM 42.0580 -93.9740 273° West 413 475 36,000  Level FlightAware
08:20PM 42.0620 -94.0760 273° West 413 475 36,000  Level FlightAware
08:21PM 42.0660 -94.1940 273° West 414 476 36,000  Level FlightAware
08:22PM 42.0690 -94.2950 272° West 415 478 36,000  Level FlightAware
08:22PM 42.0730 -94.4070 273° West 415 478 36,000  Level FlightAware
08:23PM 42.0760 -94.5120 272° West 415 478 36,000  Level FlightAware
08:24PM 42.0790 -94.6150 272° West 415 478 36,000  Level FlightAware
08:24PM 42.0830 -94.7320 273° West 413 475 36,000  Level FlightAware
08:25PM 42.0860 -94.8340 272° West 412 474 36,000  Level FlightAware
08:26PM 42.0890 -94.9520 272° West 412 474 36,000  Level FlightAware
08:27PM 42.0920 -95.0520 272° West 411 473 36,000  Level FlightAware
08:27PM 42.0940 -95.1550 272° West 411 473 36,000  Level FlightAware
08:28PM 42.0970 -95.2630 272° West 412 474 36,000  Level FlightAware
08:29PM 42.1000 -95.3690 272° West 413 475 36,000  Level FlightAware
08:29PM 42.1030 -95.4870 272° West 413 475 36,000  Level FlightAware
08:30PM 42.1050 -95.5900 272° West 414 476 36,000  Level FlightAware
08:31PM 42.1070 -95.6940 272° West 413 475 36,000  Level FlightAware
08:31PM 42.1090 -95.8060 271° West 413 475 36,000  Level FlightAware
08:32PM 42.1110 -95.9030 272° West 413 475 36,000  Level FlightAware
08:33PM 42.1130 -96.0280 271° West 415 478 36,000  Level FlightAware
08:34PM 42.1150 -96.1300 272° West 416 479 36,000  Level FlightAware
08:34PM 42.1170 -96.2350 272° West 415 478 36,000  Level FlightAware
08:35PM 42.1180 -96.3260 271° West 415 478 36,000  Level FlightAware
08:36PM 42.1190 -96.4140 271° West 415 478 36,000  Level FlightAware
08:36PM 42.1200 -96.5020 271° West 415 478 36,000  Level FlightAware
08:37PM 42.1220 -96.6120 271° West 415 478 36,000  Level FlightAware
08:38PM 42.1230 -96.7000 271° West 415 478 36,000  Level FlightAware
08:38PM 42.1240 -96.7880 271° West 415 478 36,000  Level FlightAware
08:39PM 42.1250 -96.8760 271° West 415 478 36,000  Level FlightAware
08:40PM 42.1260 -96.9640 271° West 415 478 36,000  Level FlightAware
08:41PM 42.1280 -97.0740 271° West 415 478 36,000  Level FlightAware
08:41PM 42.1290 -97.1620 271° West 415 478 36,000  Level FlightAware
08:42PM 42.1300 -97.2500 271° West 415 478 36,000  Level FlightAware
08:43PM 42.1310 -97.3380 271° West 415 478 36,000  Level FlightAware
08:43PM 42.1330 -97.4480 271° West 415 478 36,000  Level FlightAware
08:44PM 42.1340 -97.5360 271° West 415 478 36,000  Level FlightAware
08:45PM 42.1322 -97.8692 271° West 412 474 36,000  Level Minneapolis Center
08:46PM 42.1325 -98.0219 270° West 411 473 36,000  Level Minneapolis Center
08:47PM 42.1325 -98.1761 270° West 412 474 36,000  Level Minneapolis Center
08:48PM 42.1314 -98.3319 270° West 416 479 36,000  Level Minneapolis Center
08:49PM 42.1317 -98.5186 270° West 417 480 36,000  Level Minneapolis Center
08:50PM 42.1314 -98.6747 270° West 418 481 36,000  Level Minneapolis Center
08:51PM 42.1300 -98.8308 269° West 418 481 36,000  Level Minneapolis Center
08:52PM 42.1294 -98.9878 270° West 420 483 36,000  Level Minneapolis Center
08:53PM 42.1275 -99.1436 269° West 419 482 36,000  Level Minneapolis Center
08:54PM 42.1242 -99.3603 269° West 417 480 36,000  Level Denver Center
08:55PM 42.1228 -99.5172 269° West 420 483 36,000  Level Denver Center
08:56PM 42.1206 -99.6722 269° West 417 480 36,000  Level Denver Center
08:58PM 42.1186 -99.8331 269° West 413 475 36,000  Level Denver Center
08:59PM 42.1153 -99.9806 268° West 413 475 36,000  Level Denver Center
09:00PM 42.1128 -100.1533 269° West 413 475 36,000  Level Denver Center
09:01PM 42.1100 -100.3019 269° West 415 478 36,000  Level Denver Center
09:02PM 42.1072 -100.4817 269° West 424 488 36,000  Level Denver Center
09:03PM 42.0789 -100.6222 255° West 426 490 36,000  Level Denver Center
09:04PM 42.0364 -100.7600 247° West 417 480 36,000 240 Level Denver Center
09:10PM 41.7672 -101.6330 247° West 415 478 37,900 300 Climbing FlightAware ADS-B
09:10PM 41.7525 -101.6790 247° West 415 478 38,000 120 Climbing FlightAware ADS-B
09:10PM 41.7265 -101.7480 243° Southwest 415 478 38,000  Level FlightAware ADS-B
09:11PM 41.6999 -101.8180 243° Southwest 416 479 38,000  Level FlightAware ADS-B
09:11PM 41.6713 -101.8920 243° Southwest 415 478 38,000  Level FlightAware ADS-B
09:12PM 41.6450 -101.9620 243° Southwest 415 478 38,000  Level FlightAware ADS-B
09:12PM 41.6181 -102.0340 243° Southwest 414 476 38,000  Level FlightAware ADS-B
09:13PM 41.5925 -102.1030 244° Southwest 413 475 38,000  Level FlightAware ADS-B
09:13PM 41.5784 -102.1410 244° Southwest 413 475 38,000  Level FlightAware ADS-B
09:14PM 41.5604 -102.1990 247° West 414 476 38,000  Level FlightAware ADS-B
09:14PM 41.5404 -102.2840 253° West 413 475 38,000  Level FlightAware ADS-B
09:15PM 41.5239 -102.3570 253° West 413 475 38,000  Level FlightAware ADS-B
09:15PM 41.5174 -102.3880 254° West 413 475 38,000  Level FlightAware ADS-B
09:15PM 41.5149 -102.4040 258° West 414 476 38,000  Level FlightAware ADS-B
09:16PM 41.5124 -102.4800 268° West 415 478 38,000  Level FlightAware ADS-B
09:16PM 41.5125 -102.5590 270° West 416 479 38,000  Level FlightAware ADS-B
09:17PM 41.5129 -102.6400 270° West 416 479 38,000  Level FlightAware ADS-B
09:17PM 41.5128 -102.7190 270° West 418 481 38,000  Level FlightAware ADS-B
09:18PM 41.5130 -102.7920 270° West 421 484 38,000  Level FlightAware
09:18PM 41.5122 -102.8700 269° West 421 484 38,000  Level FlightAware ADS-B
09:19PM 41.5117 -102.9530 270° West 422 486 38,000  Level FlightAware ADS-B
09:19PM 41.5111 -103.0340 269° West 422 486 38,000  Level FlightAware ADS-B
09:20PM 41.5105 -103.1120 269° West 422 486 38,000  Level FlightAware ADS-B
09:20PM 41.5098 -103.1900 269° West 422 486 38,000  Level FlightAware ADS-B
09:21PM 41.5091 -103.2690 269° West 424 488 38,000  Level FlightAware ADS-B
09:21PM 41.5084 -103.3480 269° West 425 489 38,000  Level FlightAware ADS-B
09:22PM 41.5076 -103.4280 269° West 425 489 38,000  Level FlightAware ADS-B
09:22PM 41.5066 -103.5070 269° West 425 489 38,000  Level FlightAware ADS-B
09:23PM 41.5058 -103.5870 269° West 426 490 38,000  Level FlightAware ADS-B
09:23PM 41.5047 -103.6660 269° West 425 489 38,000  Level FlightAware ADS-B
09:24PM 41.5038 -103.7450 269° West 425 489 38,000  Level FlightAware ADS-B
09:24PM 41.5028 -103.8250 269° West 424 488 38,000  Level FlightAware ADS-B
09:25PM 41.5017 -103.9040 269° West 423 487 38,000  Level FlightAware ADS-B
09:25PM 41.5005 -103.9820 269° West 423 487 38,000  Level FlightAware ADS-B
09:26PM 41.4993 -104.0610 269° West 422 486 38,000  Level FlightAware ADS-B
09:26PM 41.4981 -104.1390 269° West 421 484 38,000  Level FlightAware ADS-B
09:27PM 41.4966 -104.2170 269° West 420 483 38,000  Level FlightAware ADS-B
09:27PM 41.4953 -104.2960 269° West 420 483 38,000  Level FlightAware ADS-B
09:28PM 41.4938 -104.3730 269° West 420 483 38,000  Level FlightAware ADS-B
09:28PM 41.4923 -104.4530 269° West 421 484 38,000  Level FlightAware ADS-B
09:29PM 41.4908 -104.5320 269° West 422 486 38,000  Level FlightAware ADS-B
09:29PM 41.4891 -104.6110 268° West 423 487 38,000  Level FlightAware ADS-B
09:30PM 41.4873 -104.6950 268° West 426 490 38,000  Level FlightAware ADS-B
09:30PM 41.4856 -104.7740 268° West 428 493 38,000  Level FlightAware ADS-B
09:31PM 41.4836 -104.8660 268° West 429 494 38,000  Level FlightAware ADS-B
09:31PM 41.4818 -104.9470 268° West 428 493 38,000  Level FlightAware ADS-B
09:32PM 41.4799 -105.0250 268° West 424 488 38,000  Level FlightAware ADS-B
09:32PM 41.4778 -105.1050 268° West 423 487 38,000  Level FlightAware ADS-B
09:33PM 41.4755 -105.1980 268° West 422 486 38,000  Level FlightAware ADS-B
09:34PM 41.4732 -105.2830 268° West 422 486 38,000  Level FlightAware ADS-B
09:35PM 41.4680 -105.4580 268° West 422 486 38,000  Level FlightAware
09:35PM 41.4660 -105.5590 269° West 420 483 38,000  Level FlightAware
09:36PM 41.4620 -105.6820 268° West 418 481 38,000  Level FlightAware
09:37PM 41.4590 -105.7850 268° West 417 480 38,000  Level FlightAware
09:37PM 41.4560 -105.8870 268° West 416 479 38,000  Level FlightAware
09:38PM 41.4520 -105.9980 267° West 414 476 38,000  Level FlightAware
09:39PM 41.4490 -106.1000 268° West 417 480 38,000  Level FlightAware
09:40PM 41.4450 -106.2020 267° West 419 482 38,000  Level FlightAware
09:40PM 41.4410 -106.3200 267° West 417 480 38,000  Level FlightAware
09:41PM 41.4370 -106.4390 267° West 417 480 38,000  Level FlightAware
09:42PM 41.4320 -106.5710 267° West 416 479 38,000  Level FlightAware
09:43PM 41.4280 -106.6770 267° West 415 478 38,000  Level FlightAware
09:43PM 41.4250 -106.7550 267° West 415 478 38,000  Level FlightAware
09:44PM 41.4200 -106.8640 267° West 415 478 38,000  Level FlightAware
09:45PM 41.4170 -106.9510 267° West 415 478 38,000  Level FlightAware
09:45PM 41.4140 -107.0380 267° West 415 478 38,000  Level FlightAware
09:46PM 41.4060 -107.2110 267° West 413 475 38,000  Level FlightAware
09:47PM 41.4010 -107.3000 266° West 413 475 38,000  Level FlightAware
09:47PM 41.3970 -107.3870 267° West 413 475 38,000  Level FlightAware
09:48PM 41.3920 -107.4730 266° West 413 475 38,000  Level FlightAware
09:49PM 41.3880 -107.5600 267° West 413 475 38,000  Level FlightAware
09:50PM 41.3820 -107.6680 266° West 413 475 38,000  Level FlightAware
09:50PM 41.3770 -107.7540 266° West 413 475 38,000  Level FlightAware
09:51PM 41.3730 -107.8400 266° West 413 475 38,000  Level FlightAware
09:52PM 41.3680 -107.9270 266° West 413 475 38,000  Level FlightAware
09:52PM 41.3640 -108.0130 266° West 413 475 38,000  Level FlightAware
09:53PM 41.3580 -108.1210 266° West 413 475 38,000  Level FlightAware
09:54PM 41.3540 -108.2070 266° West 413 475 38,000  Level FlightAware
09:54PM 41.3490 -108.2940 266° West 413 475 38,000  Level FlightAware
09:55PM 41.3430 -108.4020 266° West 413 475 38,000  Level FlightAware
09:56PM 41.3390 -108.4880 266° West 413 475 38,000  Level FlightAware
09:56PM 41.3289 -108.7469 266° West 410 472 38,000  Level Salt Lake Center
09:57PM 41.3206 -108.8928 266° West 410 472 38,000  Level Salt Lake Center
09:58PM 41.3092 -109.0642 265° West 412 474 38,000  Level Salt Lake Center
09:59PM 41.2994 -109.2156 265° West 420 483 38,000  Level Salt Lake Center
10:00PM 41.2911 -109.3636 266° West 418 481 38,000  Level Salt Lake Center
10:01PM 41.2800 -109.5364 265° West 418 481 38,000  Level Salt Lake Center
10:02PM 41.2711 -109.6817 265° West 414 476 38,000  Level Salt Lake Center
10:03PM 41.2614 -109.8258 265° West 412 474 38,000  Level Salt Lake Center
10:05PM 41.2494 -109.9944 265° West 410 472 38,000  Level Salt Lake Center
10:10PM 41.1870 -110.8930 265° West 416 479 38,000  Level FlightAware
10:11PM 41.1800 -110.9820 264° West 416 479 38,000  Level FlightAware
10:12PM 41.1710 -111.1000 264° West 416 479 38,000  Level FlightAware
10:13PM 41.1630 -111.2050 264° West 415 478 38,000  Level FlightAware
10:13PM 41.1550 -111.3030 264° West 415 478 38,000  Level FlightAware
10:14PM 41.1460 -111.4200 264° West 415 478 38,000  Level FlightAware
10:15PM 41.1380 -111.5220 264° West 416 479 38,000  Level FlightAware
10:15PM 41.1300 -111.6080 263° West 416 479 38,000  Level FlightAware
10:16PM 41.1200 -111.7410 264° West 415 478 38,000  Level FlightAware
10:17PM 41.1120 -111.8380 264° West 415 478 38,000  Level FlightAware
10:17PM 41.1020 -111.9560 264° West 415 478 38,000  Level FlightAware
10:18PM 41.0930 -112.0600 263° West 415 478 38,000  Level FlightAware
10:19PM 41.0840 -112.1570 263° West 416 479 38,000  Level FlightAware
10:20PM 41.0740 -112.2740 264° West 416 479 38,000  Level FlightAware
10:20PM 41.0660 -112.3710 264° West 415 478 38,000  Level FlightAware
10:21PM 41.0560 -112.4840 263° West 414 476 38,000  Level FlightAware
10:22PM 41.0460 -112.5870 263° West 412 474 38,000  Level FlightAware
10:23PM 41.0300 -112.7170 261° West 411 473 38,000  Level FlightAware
10:23PM 41.0190 -112.8010 260° West 411 473 38,000  Level FlightAware
10:24PM 41.0070 -112.8850 259° West 411 473 38,000  Level FlightAware
10:25PM 40.9960 -112.9700 260° West 411 473 38,000  Level FlightAware
10:25PM 40.9820 -113.0750 260° West 411 473 38,000  Level FlightAware
10:26PM 40.9710 -113.1600 260° West 411 473 38,000  Level FlightAware
10:27PM 40.9600 -113.2440 260° West 411 473 38,000  Level FlightAware
10:27PM 40.9490 -113.3280 260° West 411 473 38,000  Level FlightAware
10:28PM 40.9370 -113.4120 259° West 411 473 38,000  Level FlightAware
10:29PM 40.9230 -113.5180 260° West 411 473 38,000  Level FlightAware
10:30PM 40.9120 -113.6020 260° West 411 473 38,000  Level FlightAware
10:30PM 40.9010 -113.6860 260° West 411 473 38,000  Level FlightAware
10:31PM 40.8900 -113.7710 260° West 411 473 38,000  Level FlightAware
10:32PM 40.8760 -113.8760 260° West 411 473 38,000  Level FlightAware
10:32PM 40.8442 -114.1131 260° West 408 470 38,000  Level Salt Lake Center
10:33PM 40.8200 -114.2892 260° West 408 470 38,000  Level Salt Lake Center
10:34PM 40.7981 -114.4378 259° West 412 474 38,000  Level Salt Lake Center
10:35PM 40.7786 -114.5742 259° West 413 475 38,000  Level Salt Lake Center
10:36PM 40.7539 -114.7347 259° West 414 476 38,000  Level Salt Lake Center
10:37PM 40.7328 -114.8847 260° West 417 480 38,000  Level Salt Lake Center
10:38PM 40.7083 -115.0503 259° West 414 476 38,000  Level Salt Lake Center
10:39PM 40.6847 -115.1922 258° West 415 478 38,000  Level Salt Lake Center
10:40PM 40.6631 -115.3339 259° West 414 476 38,000  Level Salt Lake Center
10:41PM 40.6383 -115.5011 259° West 416 479 38,000  Level Salt Lake Center
10:42PM 40.6172 -115.6450 259° West 417 480 38,000  Level Salt Lake Center
10:43PM 40.5900 -115.8117 258° West 417 480 38,000  Level Salt Lake Center
10:44PM 40.5689 -115.9561 259° West 417 480 38,000  Level Salt Lake Center
10:45PM 40.5450 -116.0978 258° West 417 480 38,000  Level Salt Lake Center
10:46PM 40.5194 -116.2661 259° West 420 483 38,000  Level Salt Lake Center
10:47PM 40.4964 -116.4092 258° West 419 482 38,000  Level Salt Lake Center
10:48PM 40.4700 -116.5747 258° West 416 479 38,000  Level Salt Lake Center
10:49PM 40.4469 -116.7181 258° West 418 481 38,000  Level Salt Lake Center
10:51PM 40.4183 -116.8844 257° West 422 486 38,000  Level Salt Lake Center
10:52PM 40.3967 -117.0242 259° West 429 494 38,000  Level Salt Lake Center
10:53PM 40.3686 -117.1894 257° West 421 484 38,000  Level Salt Lake Center
10:54PM 40.3442 -117.3322 257° West 420 483 38,000  Level Salt Lake Center
10:55PM 40.3189 -117.4750 257° West 420 483 38,000 -540 Level Salt Lake Center
10:56PM 40.2908 -117.6417 258° West 420 483 37,000 -960 Descending Salt Lake Center
10:57PM 40.2642 -117.7906 257° West 434 499 36,100 -1,020 Descending Salt Lake Center
10:58PM 40.2336 -117.9683 257° West 447 514 35,000 -1,080 Descending Salt Lake Center
10:58PM 40.2267 -118.0122 258° West 446 513 34,600 -2,340 Descending Oakland Center
10:59PM 40.1994 -118.1689 257° West 446 513 31,700 -2,460 Descending Oakland Center
11:00PM 40.1653 -118.3558 257° West 444 511 29,600 -2,460 Descending Oakland Center
11:01PM 40.1369 -118.5119 257° West 442 509 26,800 -2,400 Descending Oakland Center
11:02PM 40.1097 -118.6631 257° West 431 496 24,800 -2,040 Descending Oakland Center
11:03PM 40.0819 -118.8067 256° West 414 476 22,700 -2,280 Descending Oakland Center
11:04PM 40.0550 -118.9428 256° West 393 452 20,200 -2,400 Descending Oakland Center
11:05PM 40.0292 -119.0764 256° West 385 443 17,900 -1,800 Descending Oakland Center
11:06PM 40.0017 -119.2067 255° West 375 432 16,600 -1,320 Descending Oakland Center
11:07PM 39.9767 -119.3297 255° West 357 411 15,200 -1,320 Descending Oakland Center
11:13PM 39.6610 -119.7670 255° West 202 232 7,300 -1,260 Descending FlightAware
11:14PM 39.6430 -119.7670 180° South 205 236 7,000 -420 Descending FlightAware
11:14PM 39.6220 -119.7660 178° South 205 236 7,000 -1,140 Level FlightAware
11:15PM 39.5840 -119.7660 180° South 170 196 5,800 -1,440 Descending FlightAware
11:15PM 39.5790 -119.7660 180° South 163 188 5,700 -720 Descending FlightAware
11:16PM 39.5550 -119.7670 182° South 159 183 5,200 -660 Descending FlightAware
11:16PM 39.5210 -119.7670 180° South 159 183 4,900 -480 Descending FlightAware